Time;durP1;ratioP1;P1;durP2;ratioP2;P2;SDS_P1;SDS_P2;PMS_P1;PMS_P2;Temp;Humidity;BMP_temperature;BMP_pressure;BME280_temperature;BME280_humidity;BME280_pressure;Samples;Min_cycle;Max_cycle;Signal;HPM_P1;HPM_P2
2024/03/23 00:01:19;;;;;;;;;8.67;8.67;;;;;;;;5082722;27;69483;-48
2024/03/23 00:03:45;;;;;;;;;7.33;6.00;;;;;;;;5077289;27;54454;-52
2024/03/23 00:06:11;;;;;;;;;15.67;10.00;;;;;;;;5077770;27;64836;-52
2024/03/23 00:08:37;;;;;;;;;10.33;7.33;;;;;;;;5079398;27;45815;-48
2024/03/23 00:11:03;;;;;;;;;10.00;6.33;;;;;;;;5075500;27;67006;-51
2024/03/23 00:13:28;;;;;;;;;8.00;6.00;;;;;;;;5077464;28;46422;-48
2024/03/23 00:15:54;;;;;;;;;9.00;6.00;;;;;;;;5079148;27;50411;-49
2024/03/23 00:18:23;;;;;;;;;10.67;10.33;;;;;;;;5071717;27;45418;-48
2024/03/23 00:20:49;;;;;;;;;9.67;8.00;;;;;;;;5080146;27;45842;-48
2024/03/23 00:23:14;;;;;;;;;8.00;8.00;;;;;;;;5078609;27;48632;-48
2024/03/23 00:25:40;;;;;;;;;11.67;6.67;;;;;;;;5077209;27;75139;-48
2024/03/23 00:28:10;;;;;;;;;10.00;7.00;;;;;;;;5079334;27;45476;-49
2024/03/23 00:30:36;;;;;;;;;9.33;9.00;;;;;;;;5077340;27;45541;-50
2024/03/23 00:33:03;;;;;;;;;12.33;10.00;;;;;;;;5078596;27;46080;-49
2024/03/23 00:35:28;;;;;;;;;10.00;8.33;;;;;;;;5078609;27;45454;-50
2024/03/23 00:37:54;;;;;;;;;11.00;11.00;;;;;;;;5078845;27;50810;-49
2024/03/23 00:40:20;;;;;;;;;15.00;11.00;;;;;;;;5079404;27;45666;-50
2024/03/23 00:42:46;;;;;;;;;13.33;12.67;;;;;;;;5081817;27;61924;-50
2024/03/23 00:45:11;;;;;;;;;15.67;10.00;;;;;;;;5082881;27;45787;-50
2024/03/23 00:47:37;;;;;;;;;13.67;11.33;;;;;;;;5073950;27;45451;-49
2024/03/23 00:50:03;;;;;;;;;13.33;11.33;;;;;;;;5082379;27;63932;-52
2024/03/23 00:52:28;;;;;;;;;13.00;12.00;;;;;;;;5081820;27;75364;-51
2024/03/23 00:54:53;;;;;;;;;13.00;11.00;;;;;;;;5083394;27;45353;-52
2024/03/23 00:57:18;;;;;;;;;13.33;9.00;;;;;;;;5082592;27;45525;-50
2024/03/23 00:59:43;;;;;;;;;16.00;12.33;;;;;;;;5082047;27;45510;-48
2024/03/23 01:02:08;;;;;;;;;14.67;11.67;;;;;;;;5080160;27;45577;-50
2024/03/23 01:04:34;;;;;;;;;14.67;13.33;;;;;;;;5069529;27;45315;-49
2024/03/23 01:06:59;;;;;;;;;12.33;10.67;;;;;;;;5082807;27;45353;-50
2024/03/23 01:09:24;;;;;;;;;14.67;13.00;;;;;;;;5081871;27;45543;-49
2024/03/23 01:11:49;;;;;;;;;15.67;11.67;;;;;;;;5082786;27;45677;-50
2024/03/23 01:14:14;;;;;;;;;15.67;12.67;;;;;;;;5081729;27;45484;-51
2024/03/23 01:16:39;;;;;;;;;15.00;15.00;;;;;;;;5082236;27;45350;-51
2024/03/23 01:19:05;;;;;;;;;16.67;12.67;;;;;;;;5081677;27;45349;-52
2024/03/23 01:21:30;;;;;;;;;11.67;10.00;;;;;;;;5082732;27;46897;-50
2024/03/23 01:23:56;;;;;;;;;18.67;13.67;;;;;;;;5082380;27;45511;-52
2024/03/23 01:26:21;;;;;;;;;13.00;10.33;;;;;;;;5080803;27;45336;-50
2024/03/23 01:28:46;;;;;;;;;11.33;9.67;;;;;;;;5079109;27;45683;-50
2024/03/23 01:31:11;;;;;;;;;13.00;11.00;;;;;;;;5081578;27;45455;-51
2024/03/23 01:33:36;;;;;;;;;11.00;10.67;;;;;;;;5081933;27;45424;-52
2024/03/23 01:36:02;;;;;;;;;15.33;11.00;;;;;;;;5081211;27;45551;-49
2024/03/23 01:38:27;;;;;;;;;11.00;8.33;;;;;;;;5080612;28;45335;-48
2024/03/23 01:40:58;;;;;;;;;11.00;11.00;;;;;;;;5079661;27;45471;-48
2024/03/23 01:43:23;;;;;;;;;15.67;10.00;;;;;;;;5079856;27;45499;-50
2024/03/23 01:45:49;;;;;;;;;13.33;9.00;;;;;;;;5077477;27;45381;-50
2024/03/23 01:48:14;;;;;;;;;15.00;9.67;;;;;;;;5074135;27;45623;-52
2024/03/23 01:50:39;;;;;;;;;8.33;7.00;;;;;;;;5081421;27;46410;-49
2024/03/23 01:53:06;;;;;;;;;8.00;6.00;;;;;;;;5079195;27;45336;-49
2024/03/23 01:55:32;;;;;;;;;9.67;5.00;;;;;;;;5082370;27;45526;-51
2024/03/23 01:57:57;;;;;;;;;12.00;7.67;;;;;;;;5081342;27;45380;-51
2024/03/23 02:00:23;;;;;;;;;11.00;6.33;;;;;;;;5081109;27;46893;-48
2024/03/23 02:02:48;;;;;;;;;11.00;9.00;;;;;;;;5080372;27;45428;-50
2024/03/23 02:05:13;;;;;;;;;7.00;7.00;;;;;;;;5071427;27;45453;-49
2024/03/23 02:07:39;;;;;;;;;10.33;7.00;;;;;;;;5081426;27;45210;-49
2024/03/23 02:10:06;;;;;;;;;9.00;6.00;;;;;;;;5081115;27;46107;-50
2024/03/23 02:12:31;;;;;;;;;3.67;3.67;;;;;;;;5081393;27;45734;-50
2024/03/23 02:14:56;;;;;;;;;3.00;3.00;;;;;;;;5081668;27;45901;-49
2024/03/23 02:17:21;;;;;;;;;6.67;4.33;;;;;;;;5080138;27;45475;-49
2024/03/23 02:19:46;;;;;;;;;7.00;5.00;;;;;;;;5080279;27;45535;-51
2024/03/23 02:22:11;;;;;;;;;3.67;1.67;;;;;;;;5080212;27;45403;-52
2024/03/23 02:24:37;;;;;;;;;9.67;3.33;;;;;;;;5079349;27;45403;-49
2024/03/23 02:27:02;;;;;;;;;8.00;3.00;;;;;;;;5079237;27;45650;-50
2024/03/23 02:29:28;;;;;;;;;6.33;2.67;;;;;;;;5076647;27;48170;-51
2024/03/23 02:31:53;;;;;;;;;8.00;3.00;;;;;;;;5080647;27;45374;-49
2024/03/23 02:34:18;;;;;;;;;2.67;2.67;;;;;;;;5080407;27;45395;-50
2024/03/23 02:36:43;;;;;;;;;6.00;4.00;;;;;;;;5079079;27;45542;-50
2024/03/23 02:39:08;;;;;;;;;6.33;3.00;;;;;;;;5079821;27;45424;-50
2024/03/23 02:41:34;;;;;;;;;6.00;2.33;;;;;;;;5078493;28;45649;-51
2024/03/23 02:43:59;;;;;;;;;3.00;3.00;;;;;;;;5079041;27;47097;-49
2024/03/23 02:46:24;;;;;;;;;3.00;3.00;;;;;;;;5079385;27;46638;-48
2024/03/23 02:48:49;;;;;;;;;4.33;2.67;;;;;;;;5080212;27;46158;-48
2024/03/23 02:51:14;;;;;;;;;3.00;3.00;;;;;;;;5080151;27;45681;-48
2024/03/23 02:53:40;;;;;;;;;2.67;2.00;;;;;;;;5080914;27;45320;-48
2024/03/23 02:56:05;;;;;;;;;2.67;2.00;;;;;;;;5080196;27;45582;-51
2024/03/23 02:58:30;;;;;;;;;6.33;2.00;;;;;;;;5077570;27;46105;-51
2024/03/23 03:00:55;;;;;;;;;1.67;1.67;;;;;;;;5079995;27;45351;-51
2024/03/23 03:03:20;;;;;;;;;4.00;1.00;;;;;;;;5072211;27;45298;-49
2024/03/23 03:05:46;;;;;;;;;5.67;3.00;;;;;;;;5073528;27;45392;-53
2024/03/23 03:08:11;;;;;;;;;4.67;4.33;;;;;;;;5080060;27;46607;-51
2024/03/23 03:10:36;;;;;;;;;7.67;1.33;;;;;;;;5080381;27;45381;-52
2024/03/23 03:13:02;;;;;;;;;5.33;2.00;;;;;;;;5080504;27;45255;-52
2024/03/23 03:15:27;;;;;;;;;4.00;1.00;;;;;;;;5080161;27;45570;-48
2024/03/23 03:17:52;;;;;;;;;2.00;2.00;;;;;;;;5077350;27;45385;-51
2024/03/23 03:20:17;;;;;;;;;7.00;1.00;;;;;;;;5079331;27;45520;-52
2024/03/23 03:22:43;;;;;;;;;5.67;2.00;;;;;;;;5080343;27;45557;-52
2024/03/23 03:25:08;;;;;;;;;5.00;2.00;;;;;;;;5078854;27;45347;-52
2024/03/23 03:27:34;;;;;;;;;3.33;3.33;;;;;;;;5076245;27;47711;-52
2024/03/23 03:30:01;;;;;;;;;8.00;3.00;;;;;;;;5078204;27;45462;-51
2024/03/23 03:32:27;;;;;;;;;3.67;2.67;;;;;;;;5076331;27;45510;-49
2024/03/23 03:34:52;;;;;;;;;3.67;1.33;;;;;;;;5080281;27;45821;-52
2024/03/23 03:37:17;;;;;;;;;4.67;2.00;;;;;;;;5080129;27;45432;-51
2024/03/23 03:39:42;;;;;;;;;6.67;2.00;;;;;;;;5080294;27;45606;-52
2024/03/23 03:42:07;;;;;;;;;5.33;2.00;;;;;;;;5080420;27;45366;-52
2024/03/23 03:44:33;;;;;;;;;2.33;1.67;;;;;;;;5080322;27;45368;-53
2024/03/23 03:46:58;;;;;;;;;3.67;2.00;;;;;;;;5072115;27;45404;-48
2024/03/23 03:49:23;;;;;;;;;6.67;3.00;;;;;;;;5076669;27;45428;-52
2024/03/23 03:51:48;;;;;;;;;4.67;0.00;;;;;;;;5081116;27;45400;-52
2024/03/23 03:54:13;;;;;;;;;1.50;1.00;;;;;;;;5079617;27;45521;-51
2024/03/23 03:56:38;;;;;;;;;3.00;2.00;;;;;;;;5080791;27;45377;-52
2024/03/23 03:59:04;;;;;;;;;3.00;1.00;;;;;;;;5079254;27;45361;-49
2024/03/23 04:01:29;;;;;;;;;5.33;2.67;;;;;;;;5080239;27;45317;-50
2024/03/23 04:03:55;;;;;;;;;3.67;2.00;;;;;;;;5077258;27;45379;-52
2024/03/23 04:06:20;;;;;;;;;8.67;3.00;;;;;;;;5079446;27;46471;-49
2024/03/23 04:08:45;;;;;;;;;5.33;3.00;;;;;;;;5079657;27;45711;-53
2024/03/23 04:11:10;;;;;;;;;1.67;1.33;;;;;;;;5079584;27;45333;-48
2024/03/23 04:13:36;;;;;;;;;7.67;2.67;;;;;;;;5079636;27;45381;-49
2024/03/23 04:16:01;;;;;;;;;2.00;2.00;;;;;;;;5078863;27;46052;-49
2024/03/23 04:18:26;;;;;;;;;3.00;2.00;;;;;;;;5072316;27;45335;-51
2024/03/23 04:20:51;;;;;;;;;3.33;2.00;;;;;;;;5079224;27;45257;-51
2024/03/23 04:23:17;;;;;;;;;11.67;4.33;;;;;;;;5077871;27;45468;-49
2024/03/23 04:25:42;;;;;;;;;6.00;3.00;;;;;;;;5080118;27;45470;-49
2024/03/23 04:28:07;;;;;;;;;4.33;2.67;;;;;;;;5079013;27;45340;-52
2024/03/23 04:30:32;;;;;;;;;11.00;4.00;;;;;;;;5077270;27;45273;-52
2024/03/23 04:32:58;;;;;;;;;5.67;2.33;;;;;;;;5079074;27;45183;-49
2024/03/23 04:35:25;;;;;;;;;5.00;3.00;;;;;;;;5077441;27;46455;-51
2024/03/23 04:37:52;;;;;;;;;4.00;3.00;;;;;;;;5078752;27;45725;-51
2024/03/23 04:40:17;;;;;;;;;5.00;2.67;;;;;;;;5079286;27;45401;-50
2024/03/23 04:42:42;;;;;;;;;3.33;2.00;;;;;;;;5078901;27;45405;-50
2024/03/23 04:45:08;;;;;;;;;5.67;3.00;;;;;;;;5077526;27;45311;-50
2024/03/23 04:47:35;;;;;;;;;6.33;1.67;;;;;;;;5075951;27;45386;-49
2024/03/23 04:50:01;;;;;;;;;3.33;2.00;;;;;;;;5079209;27;45366;-50
2024/03/23 04:52:26;;;;;;;;;2.00;1.33;;;;;;;;5078538;27;45362;-49
2024/03/23 04:54:52;;;;;;;;;5.67;3.00;;;;;;;;5079373;27;46284;-50
2024/03/23 04:57:17;;;;;;;;;4.33;2.00;;;;;;;;5077028;27;45462;-52
2024/03/23 04:59:42;;;;;;;;;4.00;2.00;;;;;;;;5075925;27;45429;-49
2024/03/23 05:02:07;;;;;;;;;4.67;2.00;;;;;;;;5064413;28;45238;-53
2024/03/23 05:04:33;;;;;;;;;2.67;1.00;;;;;;;;5064189;27;46717;-50
2024/03/23 05:06:58;;;;;;;;;1.00;1.00;;;;;;;;5076191;27;45393;-48
2024/03/23 05:09:23;;;;;;;;;5.00;3.00;;;;;;;;5077756;28;45403;-52
2024/03/23 05:11:48;;;;;;;;;6.33;2.00;;;;;;;;5079011;27;45291;-51
2024/03/23 05:14:13;;;;;;;;;3.67;1.00;;;;;;;;5078061;27;45507;-51
2024/03/23 05:16:39;;;;;;;;;9.00;5.67;;;;;;;;5079176;27;45253;-52
2024/03/23 05:19:04;;;;;;;;;3.00;3.00;;;;;;;;5071506;27;45258;-52
2024/03/23 05:21:29;;;;;;;;;5.00;2.00;;;;;;;;5077836;27;45703;-48
2024/03/23 05:23:55;;;;;;;;;4.67;1.67;;;;;;;;5078395;27;45452;-52
2024/03/23 05:26:21;;;;;;;;;2.00;1.00;;;;;;;;5078600;27;45596;-50
2024/03/23 05:28:46;;;;;;;;;4.33;1.00;;;;;;;;5080269;27;45374;-52
2024/03/23 05:31:11;;;;;;;;;2.67;1.00;;;;;;;;5081361;27;45433;-51
2024/03/23 05:33:40;;;;;;;;;2.33;1.00;;;;;;;;5082208;27;45528;-50
2024/03/23 05:36:05;;;;;;;;;2.67;1.00;;;;;;;;5082364;27;45428;-51
2024/03/23 05:38:30;;;;;;;;;3.33;2.00;;;;;;;;5082221;27;45231;-51
2024/03/23 05:40:56;;;;;;;;;4.67;2.00;;;;;;;;5082680;27;45333;-48
2024/03/23 05:43:21;;;;;;;;;3.00;0.67;;;;;;;;5081738;27;45706;-50
2024/03/23 05:45:53;;;;;;;;;2.00;2.00;;;;;;;;5082201;27;45431;-49
2024/03/23 05:48:18;;;;;;;;;2.33;0.33;;;;;;;;5082472;27;45399;-51
2024/03/23 05:50:43;;;;;;;;;2.67;1.00;;;;;;;;5082009;27;45392;-51
2024/03/23 05:53:08;;;;;;;;;2.00;2.00;;;;;;;;5077878;27;46576;-51
2024/03/23 05:55:34;;;;;;;;;2.67;1.67;;;;;;;;5081827;27;45460;-52
2024/03/23 05:57:59;;;;;;;;;3.00;1.00;;;;;;;;5082735;27;45434;-51
2024/03/23 06:00:26;;;;;;;;;1.33;1.33;;;;;;;;5077053;28;45315;-52
2024/03/23 06:02:51;;;;;;;;;5.67;1.00;;;;;;;;5077425;27;46133;-52
2024/03/23 06:05:16;;;;;;;;;4.67;1.67;;;;;;;;5076804;27;45739;-48
2024/03/23 06:07:41;;;;;;;;;1.67;1.00;;;;;;;;5077322;27;45559;-49
2024/03/23 06:10:07;;;;;;;;;2.00;2.00;;;;;;;;5074088;27;45378;-49
2024/03/23 06:12:32;;;;;;;;;3.33;1.67;;;;;;;;5077523;27;46119;-49
2024/03/23 06:14:57;;;;;;;;;2.00;0.00;;;;;;;;5075597;27;45640;-49
2024/03/23 06:17:23;;;;;;;;;0.33;0.33;;;;;;;;5076612;27;45597;-52
2024/03/23 06:19:49;;;;;;;;;1.00;1.00;;;;;;;;5076944;27;45552;-51
2024/03/23 06:22:14;;;;;;;;;0.67;0.67;;;;;;;;5076809;27;46696;-49
2024/03/23 06:24:39;;;;;;;;;1.00;1.00;;;;;;;;5076601;27;45486;-52
2024/03/23 06:27:04;;;;;;;;;3.33;2.00;;;;;;;;5077127;27;45436;-49
2024/03/23 06:29:29;;;;;;;;;1.00;1.00;;;;;;;;5075381;27;45267;-49
2024/03/23 06:31:55;;;;;;;;;1.67;1.00;;;;;;;;5076923;27;46717;-50
2024/03/23 06:34:21;;;;;;;;;0.00;0.00;;;;;;;;5076425;27;45480;-49
2024/03/23 06:36:46;;;;;;;;;5.00;2.00;;;;;;;;5076243;27;45449;-48
2024/03/23 06:39:15;;;;;;;;;3.00;0.00;;;;;;;;5076397;27;45443;-51
2024/03/23 06:41:40;;;;;;;;;0.00;0.00;;;;;;;;5077417;27;47062;-51
2024/03/23 06:44:05;;;;;;;;;4.00;0.00;;;;;;;;5076866;27;45397;-56
2024/03/23 06:46:31;;;;;;;;;1.00;1.00;;;;;;;;5076928;27;45372;-51
2024/03/23 06:48:56;;;;;;;;;1.67;1.33;;;;;;;;5076565;27;47357;-52
2024/03/23 06:51:21;;;;;;;;;2.33;1.67;;;;;;;;5075179;27;45740;-49
2024/03/23 06:53:46;;;;;;;;;2.67;0.33;;;;;;;;5076834;27;45676;-49
2024/03/23 06:56:11;;;;;;;;;4.00;0.00;;;;;;;;5076628;27;45727;-51
2024/03/23 06:58:37;;;;;;;;;1.67;1.00;;;;;;;;5074695;27;45345;-51
2024/03/23 07:01:02;;;;;;;;;0.00;0.00;;;;;;;;5075539;27;45512;-52
2024/03/23 07:03:27;;;;;;;;;0.00;0.00;;;;;;;;5070544;27;45614;-53
2024/03/23 07:05:52;;;;;;;;;1.00;0.00;;;;;;;;5072617;27;45646;-51
2024/03/23 07:08:21;;;;;;;;;1.67;0.33;;;;;;;;5076288;27;45356;-50
2024/03/23 07:10:47;;;;;;;;;0.00;0.00;;;;;;;;5076202;27;47019;-51
2024/03/23 07:13:12;;;;;;;;;3.67;0.00;;;;;;;;5075800;27;46041;-51
2024/03/23 07:15:37;;;;;;;;;1.00;0.00;;;;;;;;5076700;27;45593;-52
2024/03/23 07:18:02;;;;;;;;;0.00;0.00;;;;;;;;5076663;27;45674;-52
2024/03/23 07:20:30;;;;;;;;;1.00;0.67;;;;;;;;5075370;27;47061;-51
2024/03/23 07:22:55;;;;;;;;;2.33;2.33;;;;;;;;5076192;27;45620;-51
2024/03/23 07:25:22;;;;;;;;;0.00;0.00;;;;;;;;5076694;27;45463;-52
2024/03/23 07:27:47;;;;;;;;;3.33;0.00;;;;;;;;5076594;27;45418;-52
2024/03/23 07:30:13;;;;;;;;;0.00;0.00;;;;;;;;5072741;27;46457;-52
2024/03/23 07:32:38;;;;;;;;;0.33;0.33;;;;;;;;5074649;27;45657;-50
2024/03/23 07:35:04;;;;;;;;;0.00;0.00;;;;;;;;5076062;27;45472;-53
2024/03/23 07:37:29;;;;;;;;;2.00;2.00;;;;;;;;5082811;27;45437;-51
2024/03/23 07:39:54;;;;;;;;;1.33;1.33;;;;;;;;5074485;27;46382;-51
2024/03/23 07:42:19;;;;;;;;;4.67;1.33;;;;;;;;5076846;27;45468;-52
2024/03/23 07:44:46;;;;;;;;;0.00;0.00;;;;;;;;5076908;27;45515;-50
2024/03/23 07:47:12;;;;;;;;;3.00;0.00;;;;;;;;5070852;27;45730;-51
2024/03/23 07:49:39;;;;;;;;;1.67;1.67;;;;;;;;5074022;27;47343;-51
2024/03/23 07:52:05;;;;;;;;;5.00;2.00;;;;;;;;5075863;27;45527;-48
2024/03/23 07:54:30;;;;;;;;;2.00;2.00;;;;;;;;5075788;27;45485;-52
2024/03/23 07:56:55;;;;;;;;;5.67;1.00;;;;;;;;5075482;27;45681;-49
2024/03/23 07:59:20;;;;;;;;;2.00;2.00;;;;;;;;5078554;27;46689;-49
2024/03/23 08:01:45;;;;;;;;;2.33;0.00;;;;;;;;5077695;28;45390;-51
2024/03/23 08:04:11;;;;;;;;;3.33;1.00;;;;;;;;5078716;27;45652;-49
2024/03/23 08:06:37;;;;;;;;;4.00;1.00;;;;;;;;5078286;27;45330;-49
2024/03/23 08:09:03;;;;;;;;;1.00;1.00;;;;;;;;5076168;27;45413;-51
2024/03/23 08:11:29;;;;;;;;;4.33;2.00;;;;;;;;5071735;27;45436;-50
2024/03/23 08:13:54;;;;;;;;;2.67;2.00;;;;;;;;5079017;27;45302;-48
2024/03/23 08:16:19;;;;;;;;;0.00;0.00;;;;;;;;5073887;27;45227;-49
2024/03/23 08:18:44;;;;;;;;;2.00;1.00;;;;;;;;5075673;27;46343;-50
2024/03/23 08:21:10;;;;;;;;;1.00;1.00;;;;;;;;5075427;27;45333;-52
2024/03/23 08:23:38;;;;;;;;;4.00;1.00;;;;;;;;5074593;27;45404;-51
2024/03/23 08:26:04;;;;;;;;;0.00;0.00;;;;;;;;5080864;27;45385;-50
2024/03/23 08:28:30;;;;;;;;;1.00;1.00;;;;;;;;5077538;27;45625;-49
2024/03/23 08:30:55;;;;;;;;;1.00;1.00;;;;;;;;5077760;27;45365;-49
2024/03/23 08:33:21;;;;;;;;;1.00;1.00;;;;;;;;5082066;27;45505;-49
2024/03/23 08:35:56;;;;;;;;;2.33;0.00;;;;;;;;5077994;27;45565;-50
2024/03/23 08:38:22;;;;;;;;;0.00;0.00;;;;;;;;5076270;27;46378;-52
2024/03/23 08:40:47;;;;;;;;;0.67;0.67;;;;;;;;5078804;27;45587;-52
2024/03/23 08:43:12;;;;;;;;;2.33;1.00;;;;;;;;5077175;27;45631;-53
2024/03/23 08:45:37;;;;;;;;;2.00;0.00;;;;;;;;5080694;27;45494;-52
2024/03/23 08:48:02;;;;;;;;;1.33;0.00;;;;;;;;5077233;27;45438;-50
2024/03/23 08:50:28;;;;;;;;;0.67;0.00;;;;;;;;5074027;27;45619;-52
2024/03/23 08:52:53;;;;;;;;;0.33;0.33;;;;;;;;5072324;28;45438;-51
2024/03/23 08:55:18;;;;;;;;;3.00;1.00;;;;;;;;5078214;27;45495;-50
2024/03/23 08:57:43;;;;;;;;;0.00;0.00;;;;;;;;5079702;27;46282;-50
2024/03/23 09:00:11;;;;;;;;;1.00;1.00;;;;;;;;5076473;27;45529;-52
2024/03/23 09:02:36;;;;;;;;;1.33;0.00;;;;;;;;5076785;27;45716;-49
2024/03/23 09:05:04;;;;;;;;;1.00;0.00;;;;;;;;5080396;27;45422;-53
2024/03/23 09:07:29;;;;;;;;;1.00;1.00;;;;;;;;5078819;27;47445;-51
2024/03/23 09:09:55;;;;;;;;;1.67;0.00;;;;;;;;5073544;27;45497;-52
2024/03/23 09:12:20;;;;;;;;;1.00;1.00;;;;;;;;5071764;28;45626;-50
2024/03/23 09:14:45;;;;;;;;;3.00;1.00;;;;;;;;5081561;27;45335;-51
2024/03/23 09:17:10;;;;;;;;;1.00;1.00;;;;;;;;5077975;27;46023;-54
2024/03/23 09:19:35;;;;;;;;;3.00;2.00;;;;;;;;5071515;28;45342;-50
2024/03/23 09:22:01;;;;;;;;;4.00;1.00;;;;;;;;5081278;27;45440;-52
2024/03/23 09:24:26;;;;;;;;;1.67;1.00;;;;;;;;5068425;27;45435;-53
2024/03/23 09:26:52;;;;;;;;;0.33;0.33;;;;;;;;5075881;28;46374;-52
2024/03/23 09:29:17;;;;;;;;;0.00;0.00;;;;;;;;5074459;27;45359;-54
2024/03/23 09:31:42;;;;;;;;;1.33;0.00;;;;;;;;5078793;28;45295;-52
2024/03/23 09:34:07;;;;;;;;;0.33;0.00;;;;;;;;5080467;27;45383;-53
2024/03/23 09:36:32;;;;;;;;;0.00;0.00;;;;;;;;5081518;27;45601;-54
2024/03/23 09:38:58;;;;;;;;;2.00;0.00;;;;;;;;5081032;27;45454;-53
2024/03/23 09:41:23;;;;;;;;;0.00;0.00;;;;;;;;5079544;27;45464;-52
2024/03/23 09:43:49;;;;;;;;;0.00;0.00;;;;;;;;5080820;27;45377;-53
2024/03/23 09:46:14;;;;;;;;;1.33;0.00;;;;;;;;5074287;27;46431;-53
2024/03/23 09:48:40;;;;;;;;;0.33;0.33;;;;;;;;5083822;27;45405;-53
2024/03/23 09:51:08;;;;;;;;;0.00;0.00;;;;;;;;5078549;28;45479;-53
2024/03/23 09:53:33;;;;;;;;;0.33;0.33;;;;;;;;5077839;27;45862;-52
2024/03/23 09:55:58;;;;;;;;;0.67;0.67;;;;;;;;5080674;27;45512;-52
2024/03/23 09:58:23;;;;;;;;;1.00;1.00;;;;;;;;5078187;27;45463;-60
2024/03/23 10:00:48;;;;;;;;;1.00;0.00;;;;;;;;5080744;27;45350;-62
2024/03/23 10:03:14;;;;;;;;;0.25;0.25;;;;;;;;5077088;27;45462;-58
2024/03/23 10:05:39;;;;;;;;;0.50;0.00;;;;;;;;5070071;27;47875;-61
2024/03/23 10:08:14;;;;;;;;;1.50;0.00;;;;;;;;5066192;28;45583;-61
2024/03/23 10:10:42;;;;;;;;;1.75;1.75;;;;;;;;5074671;27;45403;-61
2024/03/23 10:13:08;;;;;;;;;1.00;1.00;;;;;;;;5076085;28;45479;-61
2024/03/23 10:15:36;;;;;;;;;1.50;1.00;;;;;;;;5080136;27;46437;-62
2024/03/23 10:18:17;;;;;;;;;1.50;1.50;;;;;;;;5071519;28;45652;-61
2024/03/23 10:20:43;;;;;;;;;0.25;0.25;;;;;;;;5072479;27;45649;-61
2024/03/23 10:23:15;;;;;;;;;1.50;0.00;;;;;;;;5077398;28;45430;-61
2024/03/23 10:25:41;;;;;;;;;0.00;0.00;;;;;;;;5073468;27;46579;-57
2024/03/23 10:28:06;;;;;;;;;3.25;2.00;;;;;;;;5079357;28;45409;-61
2024/03/23 10:30:31;;;;;;;;;1.00;1.00;;;;;;;;5078238;27;45367;-60
2024/03/23 10:33:12;;;;;;;;;1.75;1.00;;;;;;;;5071464;27;45713;-60
2024/03/23 10:35:37;;;;;;;;;1.00;1.00;;;;;;;;5079014;27;46179;-60
2024/03/23 10:38:09;;;;;;;;;0.50;0.50;;;;;;;;5065248;28;45770;-60
2024/03/23 10:40:35;;;;;;;;;1.00;1.00;;;;;;;;5074485;27;45394;-60
2024/03/23 10:43:02;;;;;;;;;3.25;1.00;;;;;;;;5078931;28;45422;-61
2024/03/23 10:45:27;;;;;;;;;2.00;1.00;;;;;;;;5079345;27;45532;-61
2024/03/23 10:47:53;;;;;;;;;2.00;0.50;;;;;;;;5068800;27;45450;-61
2024/03/23 10:50:18;;;;;;;;;1.00;1.00;;;;;;;;5073758;27;45659;-62
2024/03/23 10:52:46;;;;;;;;;2.00;2.00;;;;;;;;5069372;28;45399;-61
2024/03/23 10:55:13;;;;;;;;;1.00;1.00;;;;;;;;5079187;27;46301;-62
2024/03/23 10:57:41;;;;;;;;;0.00;0.00;;;;;;;;5068823;27;45363;-62
2024/03/23 11:00:06;;;;;;;;;1.00;1.00;;;;;;;;5079554;27;45468;-62
2024/03/23 11:02:32;;;;;;;;;0.25;0.25;;;;;;;;5063469;28;45476;-61
2024/03/23 11:04:57;;;;;;;;;0.00;0.00;;;;;;;;5063328;27;45403;-61
2024/03/23 11:07:29;;;;;;;;;1.75;0.75;;;;;;;;5078429;27;45520;-61
2024/03/23 11:09:55;;;;;;;;;0.00;0.00;;;;;;;;5078348;27;45408;-61
2024/03/23 11:12:23;;;;;;;;;3.75;0.25;;;;;;;;5077110;27;45571;-60
2024/03/23 11:14:50;;;;;;;;;1.00;1.00;;;;;;;;5078688;27;45453;-56
2024/03/23 11:17:19;;;;;;;;;2.00;0.75;;;;;;;;5078469;27;45521;-62
2024/03/23 11:19:44;;;;;;;;;0.25;0.25;;;;;;;;5078865;27;45266;-61
2024/03/23 11:22:10;;;;;;;;;2.00;0.00;;;;;;;;5079345;27;45748;-62
2024/03/23 11:24:35;;;;;;;;;3.50;2.00;;;;;;;;5074980;27;45610;-60
2024/03/23 11:27:03;;;;;;;;;1.00;0.00;;;;;;;;5081123;27;45432;-61
2024/03/23 11:29:29;;;;;;;;;1.75;1.00;;;;;;;;5072416;27;45404;-62
2024/03/23 11:31:54;;;;;;;;;2.00;1.00;;;;;;;;5077836;27;45520;-61
2024/03/23 11:34:20;;;;;;;;;1.00;1.00;;;;;;;;5078877;27;45628;-61
2024/03/23 11:36:46;;;;;;;;;1.00;1.00;;;;;;;;5077778;27;45662;-62
2024/03/23 11:39:13;;;;;;;;;1.67;1.67;;;;;;;;5071837;27;45452;-61
2024/03/23 11:41:44;;;;;;;;;1.00;1.00;;;;;;;;5072977;27;45646;-61
2024/03/23 11:44:16;;;;;;;;;1.75;0.00;;;;;;;;5078123;27;46230;-61
2024/03/23 11:46:41;;;;;;;;;1.25;0.00;;;;;;;;5074176;27;45231;-61
2024/03/23 11:49:06;;;;;;;;;0.00;0.00;;;;;;;;5078426;27;45597;-62
2024/03/23 11:51:34;;;;;;;;;2.00;2.00;;;;;;;;5077645;27;45643;-60
2024/03/23 11:54:07;;;;;;;;;0.00;0.00;;;;;;;;5077893;27;46161;-57
2024/03/23 11:56:32;;;;;;;;;1.75;0.50;;;;;;;;5078297;27;45461;-58
2024/03/23 11:58:57;;;;;;;;;2.25;0.50;;;;;;;;5077297;27;45473;-59
2024/03/23 12:01:22;;;;;;;;;1.25;0.00;;;;;;;;5089042;27;45564;-57
2024/03/23 12:03:47;;;;;;;;;1.00;0.00;;;;;;;;5077415;27;46537;-57
2024/03/23 12:06:19;;;;;;;;;2.00;0.00;;;;;;;;5080277;27;45540;-57
2024/03/23 12:08:44;;;;;;;;;2.50;2.00;;;;;;;;5078571;27;45448;-57
2024/03/23 12:11:14;;;;;;;;;0.00;0.00;;;;;;;;5077420;27;45271;-57
2024/03/23 12:13:44;;;;;;;;;2.00;2.00;;;;;;;;5074599;27;46077;-57
2024/03/23 12:16:17;;;;;;;;;2.25;1.00;;;;;;;;5083407;27;45440;-57
2024/03/23 12:18:43;;;;;;;;;0.00;0.00;;;;;;;;5077544;27;45296;-57
2024/03/23 12:21:08;;;;;;;;;0.00;0.00;;;;;;;;5077933;27;45344;-57
2024/03/23 12:23:34;;;;;;;;;1.00;0.00;;;;;;;;5075281;27;45621;-58
2024/03/23 12:25:59;;;;;;;;;2.00;0.00;;;;;;;;5079971;27;45423;-57
2024/03/23 12:28:25;;;;;;;;;0.50;0.50;;;;;;;;5077710;27;45447;-57
2024/03/23 12:30:51;;;;;;;;;1.00;1.00;;;;;;;;5071094;27;45497;-57
2024/03/23 12:33:17;;;;;;;;;5.25;2.00;;;;;;;;5072705;27;47031;-58
2024/03/23 12:35:42;;;;;;;;;0.50;0.00;;;;;;;;5077853;27;45598;-57
2024/03/23 12:38:07;;;;;;;;;0.50;0.50;;;;;;;;5081013;27;45468;-57
2024/03/23 12:40:32;;;;;;;;;1.25;1.00;;;;;;;;5075396;27;45374;-57
2024/03/23 12:42:57;;;;;;;;;1.00;1.00;;;;;;;;5074120;27;46403;-57
2024/03/23 12:45:22;;;;;;;;;4.00;0.75;;;;;;;;5076303;27;45412;-54
2024/03/23 12:47:48;;;;;;;;;0.00;0.00;;;;;;;;5083953;27;45544;-54
2024/03/23 12:50:13;;;;;;;;;0.00;0.00;;;;;;;;5070278;27;45408;-56
2024/03/23 12:52:38;;;;;;;;;0.50;0.25;;;;;;;;5077719;27;45443;-53
2024/03/23 12:55:05;;;;;;;;;0.25;0.25;;;;;;;;5074558;28;45427;-54
2024/03/23 12:57:31;;;;;;;;;0.00;0.00;;;;;;;;5077110;27;45539;-53
2024/03/23 12:59:56;;;;;;;;;0.75;0.00;;;;;;;;5085123;27;45475;-54
2024/03/23 13:02:22;;;;;;;;;2.25;0.00;;;;;;;;5073007;28;45358;-54
2024/03/23 13:04:50;;;;;;;;;1.00;1.00;;;;;;;;5069771;28;45436;-54
2024/03/23 13:07:16;;;;;;;;;2.00;1.00;;;;;;;;5074329;27;45399;-53
2024/03/23 13:09:42;;;;;;;;;1.25;0.00;;;;;;;;5074663;27;45526;-54
2024/03/23 13:12:07;;;;;;;;;0.00;0.00;;;;;;;;5072676;28;45651;-53
2024/03/23 13:14:32;;;;;;;;;0.50;0.50;;;;;;;;5074538;27;45667;-53
2024/03/23 13:16:58;;;;;;;;;2.00;0.00;;;;;;;;5081964;27;45468;-54
2024/03/23 13:19:26;;;;;;;;;0.00;0.00;;;;;;;;5072807;27;45766;-54
2024/03/23 13:21:52;;;;;;;;;1.00;0.00;;;;;;;;5073338;27;46455;-53
2024/03/23 13:24:17;;;;;;;;;0.00;0.00;;;;;;;;5079735;27;46040;-54
2024/03/23 13:26:42;;;;;;;;;0.00;0.00;;;;;;;;5077562;27;45351;-54
2024/03/23 13:29:07;;;;;;;;;2.00;1.00;;;;;;;;5075077;27;45678;-53
2024/03/23 13:31:34;;;;;;;;;0.67;0.00;;;;;;;;5082218;27;45695;-54
2024/03/23 13:33:59;;;;;;;;;0.33;0.00;;;;;;;;5085972;27;45335;-53
2024/03/23 13:36:24;;;;;;;;;1.33;0.67;;;;;;;;5078320;27;45239;-54
2024/03/23 13:38:49;;;;;;;;;0.33;0.33;;;;;;;;5078935;27;45456;-56
2024/03/23 13:41:14;;;;;;;;;1.00;0.67;;;;;;;;5076573;27;47430;-54
2024/03/23 13:43:41;;;;;;;;;0.67;0.00;;;;;;;;5084997;27;45487;-54
2024/03/23 13:46:06;;;;;;;;;1.00;1.00;;;;;;;;5072714;27;45415;-56
2024/03/23 13:48:31;;;;;;;;;1.00;0.33;;;;;;;;5084835;27;45756;-58
2024/03/23 13:51:03;;;;;;;;;1.67;0.00;;;;;;;;5081205;27;46251;-57
2024/03/23 13:53:28;;;;;;;;;1.67;0.67;;;;;;;;5071459;27;45377;-57
2024/03/23 13:55:54;;;;;;;;;0.67;0.67;;;;;;;;5078632;27;45750;-57
2024/03/23 13:58:19;;;;;;;;;0.00;0.00;;;;;;;;5080305;27;45659;-57
2024/03/23 14:00:45;;;;;;;;;2.00;1.00;;;;;;;;5088276;27;46762;-57
2024/03/23 14:03:10;;;;;;;;;0.00;0.00;;;;;;;;5076935;27;45797;-57
2024/03/23 14:05:36;;;;;;;;;0.00;0.00;;;;;;;;5071969;27;46673;-58
2024/03/23 14:08:01;;;;;;;;;0.00;0.00;;;;;;;;5077598;27;45887;-58
2024/03/23 14:10:27;;;;;;;;;0.00;0.00;;;;;;;;5091375;27;46253;-57
2024/03/23 14:12:52;;;;;;;;;0.67;0.67;;;;;;;;5080729;27;45445;-57
2024/03/23 14:15:18;;;;;;;;;0.00;0.00;;;;;;;;5086493;27;45442;-57
2024/03/23 14:17:43;;;;;;;;;0.00;0.00;;;;;;;;5077720;27;45738;-55
2024/03/23 14:20:11;;;;;;;;;0.67;0.67;;;;;;;;5080854;27;46756;-56
2024/03/23 14:22:36;;;;;;;;;1.00;1.00;;;;;;;;5081850;27;45473;-56
2024/03/23 14:25:01;;;;;;;;;0.67;0.33;;;;;;;;5081558;27;45401;-55
2024/03/23 14:27:26;;;;;;;;;0.00;0.00;;;;;;;;5081770;27;45472;-56
2024/03/23 14:29:51;;;;;;;;;0.00;0.00;;;;;;;;5078878;27;46203;-56
2024/03/23 14:32:17;;;;;;;;;1.33;0.67;;;;;;;;5079106;27;45755;-56